createdAt,value
2022-11-14T00:02:10.810Z,12.20
2022-11-14T00:04:57.309Z,12.20
2022-11-14T00:07:43.701Z,12.20
2022-11-14T00:10:30.202Z,12.20
2022-11-14T00:13:18.091Z,12.10
2022-11-14T00:16:06.228Z,12.10
2022-11-14T00:18:53.052Z,12.20
2022-11-14T00:21:40.095Z,12.10
2022-11-14T00:24:26.360Z,12.20
2022-11-14T00:27:12.969Z,12.10
2022-11-14T00:29:59.349Z,12.10
2022-11-14T00:32:47.333Z,12.10
2022-11-14T00:35:33.501Z,12.00
2022-11-14T00:38:19.960Z,12.00
2022-11-14T00:41:06.701Z,11.90
2022-11-14T00:43:53.123Z,11.80
2022-11-14T00:46:39.550Z,11.80
2022-11-14T00:49:27.449Z,11.90
2022-11-14T00:52:13.772Z,11.90
2022-11-14T00:55:00.550Z,12.00
2022-11-14T00:57:47.252Z,11.90
2022-11-14T01:00:33.951Z,11.90
2022-11-14T01:03:20.758Z,11.90
2022-11-14T01:06:11.391Z,11.90
2022-11-14T01:08:57.701Z,11.80
2022-11-14T01:11:44.111Z,11.80
2022-11-14T01:14:30.721Z,11.80
2022-11-14T01:17:17.194Z,11.70
2022-11-14T01:20:03.724Z,11.70
2022-11-14T01:22:51.608Z,11.80
2022-11-14T01:25:39.181Z,11.70
2022-11-14T01:28:25.908Z,11.80
2022-11-14T01:31:15.557Z,11.80
2022-11-14T01:34:02.067Z,11.80
2022-11-14T01:36:48.358Z,11.70
2022-11-14T01:39:36.170Z,11.70
2022-11-14T01:42:26.997Z,11.60
2022-11-14T01:45:50.992Z,11.60
2022-11-14T01:48:40.419Z,11.60
2022-11-14T01:51:30.391Z,11.60
2022-11-14T01:54:21.676Z,11.60
2022-11-14T01:57:35.689Z,11.50
2022-11-14T02:00:22.492Z,11.50
2022-11-14T02:03:09.447Z,11.50
2022-11-14T02:05:57.064Z,11.50
2022-11-14T02:08:44.844Z,11.40
2022-11-14T02:11:35.175Z,11.40
2022-11-14T02:14:23.277Z,11.40
2022-11-14T02:20:22.955Z,11.40
2022-11-14T02:23:10.031Z,11.30
2022-11-14T02:25:56.927Z,11.20
2022-11-14T02:28:43.182Z,11.10
2022-11-14T02:31:29.636Z,11.10
2022-11-14T02:34:20.099Z,11.10
2022-11-14T02:37:08.462Z,11.10
2022-11-14T02:39:55.123Z,11.20
2022-11-14T02:42:41.773Z,11.10
2022-11-14T02:45:28.485Z,11.20
2022-11-14T02:48:15.425Z,11.20
2022-11-14T02:51:02.273Z,11.10
2022-11-14T02:53:50.029Z,11.00
2022-11-14T02:56:36.951Z,11.00
2022-11-14T02:59:23.339Z,11.10
2022-11-14T03:02:10.107Z,11.10
2022-11-14T03:04:56.791Z,11.10
2022-11-14T03:07:43.377Z,11.10
2022-11-14T03:10:31.300Z,11.10
2022-11-14T03:13:17.992Z,11.10
2022-11-14T03:16:08.506Z,11.10
2022-11-14T03:18:55.050Z,11.10
2022-11-14T03:21:42.140Z,11.10
2022-11-14T03:24:28.438Z,11.10
2022-11-14T03:27:17.167Z,11.10
2022-11-14T03:30:04.171Z,10.90
2022-11-14T03:32:50.490Z,10.90
2022-11-14T03:35:37.034Z,11.00
2022-11-14T03:38:23.998Z,11.00
2022-11-14T03:41:10.745Z,10.90
2022-11-14T03:43:58.974Z,10.90
2022-11-14T03:46:45.694Z,10.90
2022-11-14T03:49:32.573Z,10.90
2022-11-14T03:52:19.121Z,10.70
2022-11-14T03:55:07.030Z,10.70
2022-11-14T03:57:53.448Z,10.60
2022-11-14T04:00:42.154Z,10.60
2022-11-14T04:03:30.777Z,10.50
2022-11-14T04:06:17.308Z,10.60
2022-11-14T04:09:03.794Z,10.60
2022-11-14T04:11:50.253Z,10.60
2022-11-14T04:14:36.467Z,10.60
2022-11-14T04:17:24.565Z,10.60
2022-11-14T04:20:12.287Z,10.60
2022-11-14T04:22:58.607Z,10.60
2022-11-14T04:25:45.907Z,10.60
2022-11-14T04:28:32.544Z,10.60
2022-11-14T04:31:19.553Z,10.70
2022-11-14T04:34:07.366Z,10.60
2022-11-14T04:36:53.671Z,10.60
2022-11-14T04:39:39.976Z,10.70
2022-11-14T04:42:26.799Z,10.70
2022-11-14T04:45:13.255Z,10.70
2022-11-14T04:48:00.025Z,10.60
2022-11-14T04:50:48.035Z,10.60
2022-11-14T04:53:34.885Z,10.60
2022-11-14T04:56:23.436Z,10.60
2022-11-14T04:59:10.456Z,10.60
2022-11-14T05:01:57.139Z,10.70
2022-11-14T05:04:48.687Z,10.70
2022-11-14T05:07:36.610Z,10.70
2022-11-14T05:10:23.095Z,10.60
2022-11-14T05:13:09.616Z,10.70
2022-11-14T05:16:00.287Z,10.60
2022-11-14T05:18:47.736Z,10.50
2022-11-14T05:21:34.347Z,10.50
2022-11-14T05:24:22.498Z,10.50
2022-11-14T05:27:09.427Z,10.50
2022-11-14T05:29:56.065Z,10.40
2022-11-14T05:32:42.846Z,10.30
2022-11-14T05:35:29.306Z,10.30
2022-11-14T05:38:18.156Z,10.30
2022-11-14T05:41:08.525Z,10.20
2022-11-14T05:43:55.226Z,10.30
2022-11-14T05:46:41.785Z,10.30
2022-11-14T05:49:28.257Z,10.20
2022-11-14T05:52:14.915Z,10.20
2022-11-14T05:55:01.436Z,10.00
2022-11-14T05:57:49.576Z,9.90
2022-11-14T06:00:42.375Z,10.00
2022-11-14T06:03:34.594Z,10.10
2022-11-14T06:06:22.308Z,10.10
2022-11-14T06:09:09.166Z,10.10
2022-11-14T06:11:55.977Z,10.10
2022-11-14T06:14:43.848Z,10.10
2022-11-14T06:17:30.466Z,10.10
2022-11-14T06:20:17.196Z,10.10
2022-11-14T06:23:03.374Z,10.30
2022-11-14T06:25:50.007Z,10.20
2022-11-14T06:28:36.725Z,10.20
2022-11-14T06:31:25.397Z,10.00
2022-11-14T06:34:13.125Z,9.70
2022-11-14T06:36:59.489Z,9.60
2022-11-14T06:39:46.746Z,9.90
2022-11-14T06:42:33.128Z,10.10
2022-11-14T06:45:19.857Z,10.20
2022-11-14T06:48:07.968Z,10.20
2022-11-14T06:50:54.817Z,10.30
2022-11-14T06:53:41.655Z,10.30
2022-11-14T06:56:28.016Z,10.30
2022-11-14T06:59:15.306Z,10.30
2022-11-14T07:02:01.642Z,10.30
2022-11-14T07:04:49.580Z,10.40
2022-11-14T07:07:36.123Z,10.30
2022-11-14T07:10:22.505Z,10.40
2022-11-14T07:13:10.696Z,10.50
2022-11-14T07:15:57.263Z,10.50
2022-11-14T07:18:43.511Z,10.40
2022-11-14T07:21:32.351Z,10.50
2022-11-14T07:24:19.066Z,10.50
2022-11-14T07:27:08.954Z,10.60
2022-11-14T07:29:55.643Z,10.60
2022-11-14T07:32:42.371Z,10.50
2022-11-14T07:35:28.993Z,10.60
2022-11-14T07:38:16.970Z,10.60
2022-11-14T07:41:05.521Z,10.70
2022-11-14T07:43:52.359Z,10.70
2022-11-14T07:46:38.917Z,10.70
2022-11-14T07:49:25.489Z,10.80
2022-11-14T07:52:12.118Z,10.90
2022-11-14T07:54:59.793Z,10.90
2022-11-14T07:57:49.459Z,11.10
2022-11-14T08:00:36.674Z,11.10
2022-11-14T08:03:23.437Z,11.20
2022-11-14T08:06:14.048Z,11.30
2022-11-14T08:09:00.301Z,11.40
2022-11-14T08:11:48.312Z,11.40
2022-11-14T08:14:35.455Z,11.40
2022-11-14T08:17:22.367Z,11.40
2022-11-14T08:20:10.744Z,11.40
2022-11-14T08:23:03.654Z,11.50
2022-11-14T08:25:50.297Z,11.50
2022-11-14T08:28:38.581Z,11.60
2022-11-14T08:31:25.487Z,11.60
2022-11-14T08:34:20.297Z,11.70
2022-11-14T08:37:07.019Z,11.80
2022-11-14T08:39:53.728Z,11.80
2022-11-14T08:42:39.982Z,11.90
2022-11-14T08:45:28.681Z,11.90
2022-11-14T08:48:15.293Z,12.00
2022-11-14T08:51:07.532Z,12.10
2022-11-14T08:53:53.923Z,12.20
2022-11-14T08:56:40.272Z,12.40
2022-11-14T08:59:27.012Z,12.50
2022-11-14T09:02:15.253Z,12.60
2022-11-14T09:05:02.525Z,12.70
2022-11-14T09:07:49.981Z,12.80
2022-11-14T09:10:37.575Z,12.90
2022-11-14T09:13:24.212Z,13.00
2022-11-14T09:16:10.614Z,13.10
2022-11-14T09:18:58.923Z,13.20
2022-11-14T09:21:45.227Z,13.30
2022-11-14T09:24:31.801Z,13.40
2022-11-14T09:27:18.487Z,13.50
2022-11-14T09:30:06.288Z,13.60
2022-11-14T09:32:52.627Z,13.70
2022-11-14T09:35:41.577Z,13.80
2022-11-14T09:38:28.507Z,13.90
2022-11-14T09:41:23.760Z,14.00
2022-11-14T09:44:33.398Z,14.10
2022-11-14T09:47:23.796Z,14.20
2022-11-14T09:50:14.987Z,14.20
2022-11-14T09:53:09.827Z,14.30
2022-11-14T09:55:56.467Z,14.40
2022-11-14T09:58:43.241Z,14.50
2022-11-14T10:01:43.639Z,14.60
2022-11-14T10:04:44.166Z,14.60
2022-11-14T10:07:40.458Z,14.70
2022-11-14T10:10:43.047Z,14.80
2022-11-14T10:13:49.867Z,14.90
2022-11-14T10:16:43.208Z,15.00
2022-11-14T10:19:41.450Z,15.10
2022-11-14T10:22:44.707Z,15.20
2022-11-14T10:25:44.511Z,15.30
2022-11-14T10:28:49.307Z,15.40
2022-11-14T10:31:48.087Z,15.50
2022-11-14T10:34:38.319Z,15.50
2022-11-14T10:37:30.112Z,15.60
2022-11-14T10:40:19.314Z,15.70
2022-11-14T10:43:20.769Z,15.70
2022-11-14T10:46:15.109Z,15.80
2022-11-14T10:49:01.768Z,15.90
2022-11-14T10:51:52.864Z,16.10
2022-11-14T10:54:44.537Z,16.10
2022-11-14T10:57:31.733Z,16.20
2022-11-14T11:00:20.587Z,16.30
2022-11-14T11:03:07.850Z,16.40
2022-11-14T11:05:58.027Z,16.50
2022-11-14T11:09:03.041Z,16.50
2022-11-14T11:11:58.107Z,16.60
2022-11-14T11:14:45.172Z,16.80
2022-11-14T11:17:38.552Z,16.80
2022-11-14T11:20:34.361Z,16.90
2022-11-14T11:23:25.431Z,17.00
2022-11-14T11:26:19.706Z,17.10
2022-11-14T11:29:14.964Z,17.20
2022-11-14T11:32:01.787Z,17.20
2022-11-14T11:34:49.886Z,17.30
2022-11-14T11:37:40.486Z,17.40
2022-11-14T11:40:28.959Z,17.60
2022-11-14T11:43:38.385Z,17.70
2022-11-14T11:46:32.413Z,17.80
2022-11-14T11:49:24.069Z,17.80
2022-11-14T11:52:31.774Z,18.00
2022-11-14T11:55:21.404Z,18.00
2022-11-14T11:58:15.793Z,18.00
2022-11-14T12:01:02.311Z,18.10
2022-11-14T12:03:50.397Z,18.30
2022-11-14T12:06:45.111Z,18.30
2022-11-14T12:10:08.668Z,18.40
2022-11-14T12:13:03.301Z,18.50
2022-11-14T12:16:01.914Z,18.50
2022-11-14T12:19:17.353Z,18.60
2022-11-14T12:22:26.289Z,18.70
2022-11-14T12:25:43.132Z,18.80
2022-11-14T12:28:46.102Z,18.90
2022-11-14T12:31:35.676Z,19.00
2022-11-14T12:34:27.520Z,19.00
2022-11-14T12:37:20.227Z,19.00
2022-11-14T12:40:09.490Z,19.20
2022-11-14T12:43:00.992Z,19.20
2022-11-14T12:46:00.095Z,19.10
2022-11-14T12:48:47.827Z,19.10
2022-11-14T12:51:52.001Z,19.20
2022-11-14T12:54:57.632Z,19.30
2022-11-14T12:57:58.665Z,19.40
2022-11-14T13:01:08.198Z,19.40
2022-11-14T13:04:07.940Z,19.40
2022-11-14T13:07:08.883Z,19.40
2022-11-14T13:10:12.211Z,19.30
2022-11-14T13:13:23.490Z,19.30
2022-11-14T13:16:43.149Z,19.30
2022-11-14T13:19:48.350Z,19.20
2022-11-14T13:22:41.109Z,19.10
2022-11-14T13:25:28.529Z,19.00
2022-11-14T13:28:48.989Z,18.90
2022-11-14T13:31:50.529Z,18.90
2022-11-14T13:34:43.171Z,18.80
2022-11-14T13:37:54.012Z,18.90
2022-11-14T13:40:48.129Z,18.90
2022-11-14T13:43:49.373Z,18.80
2022-11-14T13:47:01.019Z,18.70
2022-11-14T13:49:59.388Z,18.60
2022-11-14T13:52:47.944Z,18.50
2022-11-14T13:56:11.895Z,18.40
2022-11-14T13:59:46.901Z,18.20
2022-11-14T14:03:07.952Z,18.20
2022-11-14T14:06:10.874Z,18.10
2022-11-14T14:09:15.831Z,18.10
2022-11-14T14:12:22.864Z,18.00
2022-11-14T14:15:21.244Z,17.90
2022-11-14T14:18:21.524Z,17.90
2022-11-14T14:21:22.746Z,17.80
2022-11-14T14:24:23.097Z,17.80
2022-11-14T14:27:24.656Z,17.80
2022-11-14T14:30:14.523Z,17.70
2022-11-14T14:33:10.308Z,17.70
2022-11-14T14:35:58.937Z,17.60
2022-11-14T14:38:46.843Z,17.50
2022-11-14T14:41:33.996Z,17.50
2022-11-14T14:44:25.996Z,17.50
2022-11-14T14:47:17.717Z,17.50
2022-11-14T14:50:08.772Z,17.50
2022-11-14T14:53:02.011Z,17.40
2022-11-14T14:55:54.334Z,17.40
2022-11-14T14:58:41.895Z,17.40
2022-11-14T15:01:34.574Z,17.40
2022-11-14T15:04:22.579Z,17.40
2022-11-14T15:07:20.560Z,17.30
2022-11-14T15:10:20.462Z,17.30
2022-11-14T15:13:08.965Z,17.40
2022-11-14T15:15:56.241Z,18.20
2022-11-14T15:18:45.579Z,19.00
2022-11-14T15:21:32.078Z,19.30
2022-11-14T15:24:20.841Z,19.30
2022-11-14T15:27:14.129Z,19.10
2022-11-14T15:30:03.468Z,18.90
2022-11-14T15:32:53.463Z,18.50
2022-11-14T15:35:41.323Z,18.40
2022-11-14T15:38:44.660Z,18.10
2022-11-14T15:41:34.940Z,17.60
2022-11-14T15:44:32.444Z,17.20
2022-11-14T15:47:27.720Z,17.00
2022-11-14T15:50:29.446Z,16.80
2022-11-14T15:53:23.966Z,16.70
2022-11-14T15:56:13.470Z,16.50
2022-11-14T15:59:00.510Z,16.30
2022-11-14T16:01:51.740Z,16.20
2022-11-14T16:04:44.408Z,16.10
2022-11-14T16:07:36.741Z,16.00
2022-11-14T16:10:24.877Z,15.90
2022-11-14T16:13:11.984Z,15.90
2022-11-14T16:15:58.751Z,15.80
2022-11-14T16:18:46.948Z,15.80
2022-11-14T16:21:34.032Z,15.70
2022-11-14T16:24:22.869Z,15.70
2022-11-14T16:27:09.867Z,15.60
2022-11-14T16:29:56.680Z,15.60
2022-11-14T16:32:47.189Z,15.50
2022-11-14T16:35:36.187Z,15.30
2022-11-14T16:38:22.571Z,15.30
2022-11-14T16:41:10.378Z,15.30
2022-11-14T16:43:57.647Z,15.30
2022-11-14T16:46:45.048Z,15.30
2022-11-14T16:49:31.677Z,15.20
2022-11-14T16:52:20.217Z,15.20
2022-11-14T16:55:07.548Z,15.20
2022-11-14T16:57:54.267Z,15.10
2022-11-14T17:00:42.939Z,15.10
2022-11-14T17:03:32.028Z,15.10
2022-11-14T17:06:19.205Z,15.10
2022-11-14T17:09:07.137Z,15.00
2022-11-14T17:11:53.695Z,15.00
2022-11-14T17:14:40.242Z,15.00
2022-11-14T17:17:32.594Z,14.90
2022-11-14T17:20:19.565Z,14.90
2022-11-14T17:23:06.300Z,14.80
2022-11-14T17:26:00.929Z,14.70
2022-11-14T17:28:47.722Z,14.70
2022-11-14T17:31:37.943Z,14.60
2022-11-14T17:34:26.480Z,14.60
2022-11-14T17:37:12.899Z,14.60
2022-11-14T17:39:59.563Z,14.60
2022-11-14T17:42:47.608Z,14.50
2022-11-14T17:45:35.942Z,14.50
2022-11-14T17:48:25.838Z,14.40
2022-11-14T17:51:14.208Z,14.40
2022-11-14T17:54:01.114Z,14.40
2022-11-14T17:56:53.680Z,14.40
2022-11-14T17:59:43.116Z,14.30
2022-11-14T18:02:30.146Z,14.20
2022-11-14T18:05:16.977Z,14.20
2022-11-14T18:08:03.432Z,14.10
2022-11-14T18:10:50.025Z,14.00
2022-11-14T18:13:36.391Z,14.00
2022-11-14T18:16:28.574Z,14.00
2022-11-14T18:19:21.665Z,14.00
2022-11-14T18:22:08.476Z,13.90
2022-11-14T18:24:55.591Z,13.90
2022-11-14T18:27:43.077Z,13.90
2022-11-14T18:30:41.034Z,13.80
2022-11-14T18:33:30.336Z,13.80
2022-11-14T18:36:17.467Z,13.80
2022-11-14T18:39:04.706Z,13.80
2022-11-14T18:41:51.951Z,13.80
2022-11-14T18:44:38.916Z,13.80
2022-11-14T18:47:25.460Z,13.80
2022-11-14T18:50:13.874Z,13.80
2022-11-14T18:53:00.780Z,13.70
2022-11-14T18:55:53.396Z,13.70
2022-11-14T18:58:41.630Z,13.60
2022-11-14T19:01:30.069Z,13.50
2022-11-14T19:04:20.032Z,13.50
2022-11-14T19:07:08.257Z,13.50
2022-11-14T19:09:55.268Z,13.50
2022-11-14T19:12:43.028Z,13.40
2022-11-14T19:15:30.235Z,13.30
2022-11-14T19:18:16.731Z,13.30
2022-11-14T19:21:04.155Z,13.30
2022-11-14T19:23:54.056Z,13.40
2022-11-14T19:26:41.027Z,13.40
2022-11-14T19:29:27.684Z,13.30
2022-11-14T19:32:14.043Z,13.20
2022-11-14T19:35:00.704Z,13.20
2022-11-14T19:37:47.748Z,13.10
2022-11-14T19:40:37.821Z,13.20
2022-11-14T19:43:26.333Z,13.20
2022-11-14T19:46:13.597Z,13.10
2022-11-14T19:49:01.745Z,13.10
2022-11-14T19:51:49.178Z,12.90
2022-11-14T19:54:36.305Z,12.90
2022-11-14T19:57:24.153Z,12.90
2022-11-14T20:00:11.385Z,12.90
2022-11-14T20:02:58.081Z,12.80
2022-11-14T20:05:44.679Z,12.80
2022-11-14T20:08:31.795Z,12.80
2022-11-14T20:11:19.573Z,12.80
2022-11-14T20:14:08.142Z,12.80
2022-11-14T20:16:54.863Z,12.70
2022-11-14T20:19:41.526Z,12.80
2022-11-14T20:22:28.247Z,12.80
2022-11-14T20:25:17.214Z,12.70
2022-11-14T20:28:27.724Z,12.70
2022-11-14T20:31:18.294Z,12.70
2022-11-14T20:34:04.972Z,12.80
2022-11-14T20:40:01.195Z,12.60
2022-11-14T20:42:49.340Z,12.50
2022-11-14T20:45:59.296Z,12.60
2022-11-14T20:48:48.368Z,12.70
2022-11-14T20:51:36.950Z,12.70
2022-11-14T20:54:25.483Z,12.60
2022-11-14T20:57:11.899Z,12.40
2022-11-14T20:59:58.229Z,12.40
2022-11-14T21:02:45.188Z,12.20
2022-11-14T21:05:33.478Z,12.20
2022-11-14T21:08:20.758Z,12.20
2022-11-14T21:11:11.048Z,12.10
2022-11-14T21:14:01.927Z,12.10
2022-11-14T21:16:48.867Z,12.10
2022-11-14T21:19:36.070Z,12.10
2022-11-14T21:22:24.083Z,12.10
2022-11-14T21:25:10.577Z,12.10
2022-11-14T21:27:57.386Z,12.10
2022-11-14T21:30:43.407Z,12.00
2022-11-14T21:33:33.062Z,12.00
2022-11-14T21:39:28.791Z,12.00
2022-11-14T21:42:18.451Z,12.00
2022-11-14T21:45:06.681Z,12.00
2022-11-14T21:47:52.967Z,12.00
2022-11-14T21:50:39.606Z,12.00
2022-11-14T21:53:27.612Z,11.90
2022-11-14T21:56:17.360Z,11.90
2022-11-14T21:59:16.391Z,11.90
2022-11-14T22:02:21.758Z,11.90
2022-11-14T22:05:09.086Z,11.80
2022-11-14T22:07:55.822Z,11.80
2022-11-14T22:10:42.439Z,11.80
2022-11-14T22:13:32.128Z,11.70
2022-11-14T22:16:19.867Z,11.80
2022-11-14T22:19:06.564Z,11.90
2022-11-14T22:21:55.810Z,11.90
2022-11-14T22:24:42.421Z,11.80
2022-11-14T22:27:29.064Z,11.80
2022-11-14T22:30:17.413Z,11.80
2022-11-14T22:33:03.685Z,11.70
2022-11-14T22:35:50.745Z,11.70
2022-11-14T22:38:37.373Z,11.70
2022-11-14T22:41:30.735Z,11.80
2022-11-14T22:44:19.466Z,11.70
2022-11-14T22:47:07.498Z,11.50
2022-11-14T22:49:53.796Z,11.60
2022-11-14T22:52:40.169Z,11.50
2022-11-14T22:55:26.652Z,11.50
2022-11-14T22:58:13.208Z,11.60
2022-11-14T23:01:00.004Z,11.50
2022-11-14T23:03:48.518Z,11.60
2022-11-14T23:06:35.141Z,11.50
2022-11-14T23:09:21.554Z,11.50
2022-11-14T23:12:08.006Z,11.50
2022-11-14T23:14:54.247Z,11.40
2022-11-14T23:17:40.809Z,11.40
2022-11-14T23:20:29.110Z,11.30
2022-11-14T23:23:16.121Z,11.10
2022-11-14T23:26:05.519Z,11.10
2022-11-14T23:28:52.320Z,11.10
2022-11-14T23:31:38.291Z,11.10
2022-11-14T23:34:25.207Z,11.10
2022-11-14T23:37:13.208Z,11.20
2022-11-14T23:39:59.368Z,11.20
2022-11-14T23:42:45.810Z,11.10
2022-11-14T23:45:32.423Z,11.00
2022-11-14T23:48:20.623Z,10.90
2022-11-14T23:51:07.484Z,11.00
2022-11-14T23:53:55.497Z,11.00
2022-11-14T23:56:41.724Z,10.90
2022-11-14T23:59:28.159Z,10.80
